createdAt,value
2023-01-10T00:04:00.079Z,6.02
2023-01-10T00:09:06.411Z,6.07
2023-01-10T00:14:13.363Z,5.07
2023-01-10T00:19:19.647Z,5.41
2023-01-10T00:24:25.771Z,4.52
2023-01-10T00:29:31.916Z,3.99
2023-01-10T00:34:38.304Z,5.20
2023-01-10T00:39:44.623Z,4.74
2023-01-10T00:44:50.693Z,4.08
2023-01-10T00:49:56.933Z,4.40
2023-01-10T00:55:02.977Z,3.97
2023-01-10T01:00:09.165Z,3.55
2023-01-10T01:05:15.245Z,4.51
2023-01-10T01:10:21.546Z,4.34
2023-01-10T01:15:27.704Z,4.96
2023-01-10T01:20:33.895Z,4.51
2023-01-10T01:25:39.962Z,5.46
2023-01-10T01:30:46.242Z,3.72
2023-01-10T01:35:52.308Z,3.00
2023-01-10T01:40:58.541Z,4.48
2023-01-10T01:46:04.987Z,4.50
2023-01-10T01:51:11.856Z,3.93
2023-01-10T01:56:17.955Z,3.88
2023-01-10T02:01:24.398Z,4.43
2023-01-10T02:06:30.435Z,4.27
2023-01-10T02:11:36.609Z,3.07
2023-01-10T02:16:42.657Z,4.33
2023-01-10T02:21:48.885Z,3.97
2023-01-10T02:26:54.948Z,4.37
2023-01-10T02:32:01.243Z,3.64
2023-01-10T02:37:07.428Z,4.38
2023-01-10T02:42:13.585Z,4.79
2023-01-10T02:47:19.683Z,4.12
2023-01-10T02:52:25.874Z,3.94
2023-01-10T02:57:31.928Z,5.70
2023-01-10T03:02:38.156Z,7.27
2023-01-10T03:07:44.240Z,4.78
2023-01-10T03:12:50.406Z,5.44
2023-01-10T03:17:56.561Z,4.39
2023-01-10T03:23:02.807Z,6.55
2023-01-10T03:28:08.894Z,5.71
2023-01-10T03:33:15.836Z,6.22
2023-01-10T03:38:22.036Z,6.60
2023-01-10T03:43:28.228Z,5.28
2023-01-10T03:48:34.677Z,4.97
2023-01-10T03:53:40.863Z,5.05
2023-01-10T03:58:46.955Z,4.78
2023-01-10T04:03:53.183Z,5.31
2023-01-10T04:08:59.362Z,6.83
2023-01-10T04:14:06.068Z,6.27
2023-01-10T04:19:12.145Z,6.60
2023-01-10T04:24:18.598Z,7.87
2023-01-10T04:29:24.756Z,5.73
2023-01-10T04:34:32.010Z,7.74
2023-01-10T04:39:38.089Z,5.86
2023-01-10T04:44:44.282Z,7.01
2023-01-10T04:49:50.367Z,6.34
2023-01-10T04:54:56.626Z,7.36
2023-01-10T05:00:02.735Z,6.98
2023-01-10T05:05:08.944Z,4.84
2023-01-10T05:10:15.033Z,5.70
2023-01-10T05:15:21.245Z,6.86
2023-01-10T05:20:27.400Z,6.70
2023-01-10T05:25:33.642Z,9.27
2023-01-10T05:30:39.877Z,6.74
2023-01-10T05:35:46.183Z,8.55
2023-01-10T05:40:52.252Z,6.64
2023-01-10T05:45:58.465Z,8.25
2023-01-10T05:51:04.598Z,7.88
2023-01-10T05:56:10.807Z,8.06
2023-01-10T06:01:16.961Z,8.11
2023-01-10T06:06:23.161Z,7.35
2023-01-10T06:11:29.313Z,7.95
2023-01-10T06:16:35.657Z,7.53
2023-01-10T06:21:41.820Z,5.60
2023-01-10T06:26:48.022Z,7.94
2023-01-10T06:31:54.108Z,5.75
2023-01-10T06:37:00.278Z,7.04
2023-01-10T06:42:06.384Z,8.11
2023-01-10T06:47:12.808Z,7.27
2023-01-10T06:52:18.905Z,8.74
2023-01-10T06:57:25.160Z,7.01
2023-01-10T07:02:31.255Z,7.94
2023-01-10T07:07:37.480Z,9.20
2023-01-10T07:12:43.630Z,6.89
2023-01-10T07:17:49.797Z,7.70
2023-01-10T07:22:55.926Z,5.15
2023-01-10T07:28:02.165Z,6.69
2023-01-10T07:33:08.273Z,7.73
2023-01-10T07:38:14.551Z,6.99
2023-01-10T07:43:20.624Z,6.69
2023-01-10T07:48:26.840Z,8.16
2023-01-10T07:53:32.898Z,8.93
2023-01-10T07:58:39.052Z,8.12
2023-01-10T08:03:45.218Z,9.33
2023-01-10T08:08:51.437Z,8.89
2023-01-10T08:13:57.513Z,6.59
2023-01-10T08:19:03.755Z,9.34
2023-01-10T08:24:09.818Z,9.29
2023-01-10T08:29:15.987Z,10.41
2023-01-10T08:34:22.057Z,10.79
2023-01-10T08:39:28.406Z,11.64
2023-01-10T08:44:34.492Z,9.68
2023-01-10T08:50:14.141Z,10.71
2023-01-10T08:55:20.218Z,10.28
2023-01-10T09:00:27.862Z,10.01
2023-01-10T09:05:34.050Z,9.52
2023-01-10T09:10:40.270Z,13.86
2023-01-10T09:15:46.399Z,10.49
2023-01-10T09:20:52.622Z,8.52
2023-01-10T09:25:58.702Z,9.82
2023-01-10T09:31:04.885Z,9.39
2023-01-10T09:36:11.048Z,8.18
2023-01-10T09:41:17.624Z,9.47
2023-01-10T09:46:23.716Z,11.37
2023-01-10T09:51:30.876Z,12.05
2023-01-10T09:56:37.017Z,10.98
2023-01-10T10:01:43.251Z,12.09
2023-01-10T10:06:49.565Z,11.73
2023-01-10T10:11:56.038Z,13.63
2023-01-10T10:17:02.116Z,11.75
2023-01-10T10:22:08.323Z,12.89
2023-01-10T10:27:14.484Z,11.02
2023-01-10T10:32:20.671Z,11.61
2023-01-10T10:37:26.742Z,13.96
2023-01-10T10:42:32.904Z,9.84
2023-01-10T10:47:38.992Z,13.65
2023-01-10T10:52:45.140Z,15.87
2023-01-10T10:57:59.809Z,11.17
2023-01-10T11:02:56.959Z,11.99
2023-01-10T11:08:03.029Z,13.30
2023-01-10T11:13:09.217Z,11.07
2023-01-10T11:18:15.285Z,13.88
2023-01-10T11:23:21.723Z,11.24
2023-01-10T11:28:27.879Z,10.72
2023-01-10T11:33:34.032Z,10.78
2023-01-10T11:38:40.129Z,9.88
2023-01-10T11:43:46.308Z,13.33
2023-01-10T11:49:06.187Z,9.75
2023-01-10T11:53:58.182Z,11.11
2023-01-10T11:59:04.273Z,9.91
2023-01-10T12:04:10.468Z,11.05
2023-01-10T12:09:16.531Z,9.68
2023-01-10T12:14:22.689Z,11.32
2023-01-10T12:19:28.776Z,10.46
2023-01-10T12:24:34.967Z,9.07
2023-01-10T12:29:41.057Z,10.50
2023-01-10T12:34:47.226Z,11.52
2023-01-10T12:39:53.313Z,11.47
2023-01-10T12:44:59.576Z,11.55
2023-01-10T12:50:05.692Z,12.07
2023-01-10T12:55:11.854Z,16.42
2023-01-10T13:00:17.956Z,10.50
2023-01-10T13:05:24.121Z,11.68
2023-01-10T13:10:30.298Z,13.15
2023-01-10T13:15:37.068Z,11.79
2023-01-10T13:20:44.137Z,10.53
2023-01-10T13:25:50.274Z,11.14
2023-01-10T13:30:56.427Z,11.69
2023-01-10T13:36:02.565Z,11.45
2023-01-10T13:41:08.697Z,13.49
2023-01-10T13:46:14.962Z,11.53
2023-01-10T13:51:20.986Z,11.63
2023-01-10T13:56:27.192Z,12.23
2023-01-10T14:01:33.393Z,11.87
2023-01-10T14:06:39.515Z,12.21
2023-01-10T14:11:45.620Z,10.74
2023-01-10T14:16:51.908Z,13.53
2023-01-10T14:21:57.961Z,11.43
2023-01-10T14:27:04.255Z,15.22
2023-01-10T14:32:10.373Z,11.79
2023-01-10T14:37:16.658Z,11.07
2023-01-10T14:42:22.897Z,10.34
2023-01-10T14:47:29.145Z,12.15
2023-01-10T14:52:35.268Z,14.72
2023-01-10T14:57:41.540Z,12.36
2023-01-10T15:02:47.709Z,11.30
2023-01-10T15:07:54.141Z,11.46
2023-01-10T15:13:00.253Z,11.61
2023-01-10T15:18:06.557Z,11.72
2023-01-10T15:23:12.722Z,12.78
2023-01-10T15:28:18.934Z,13.69
2023-01-10T15:33:25.197Z,15.68
2023-01-10T15:38:31.412Z,13.99
2023-01-10T15:43:37.553Z,12.22
2023-01-10T15:48:43.805Z,13.50
2023-01-10T15:53:49.899Z,12.61
2023-01-10T15:58:56.080Z,12.61
2023-01-10T16:04:02.147Z,11.13
2023-01-10T16:09:08.366Z,11.67
2023-01-10T16:14:14.508Z,12.13
2023-01-10T16:19:20.757Z,13.13
2023-01-10T16:24:26.859Z,12.16
2023-01-10T16:29:34.104Z,10.88
2023-01-10T16:34:40.176Z,12.68
2023-01-10T16:39:46.302Z,12.13
2023-01-10T16:44:52.416Z,15.00
2023-01-10T16:49:58.625Z,15.63
2023-01-10T16:55:04.917Z,11.20
2023-01-10T17:00:10.997Z,10.91
2023-01-10T17:05:17.089Z,9.90
2023-01-10T17:10:23.367Z,10.47
2023-01-10T17:16:35.333Z,13.70
2023-01-10T17:21:41.523Z,11.36
2023-01-10T17:26:47.684Z,10.20
2023-01-10T17:31:54.212Z,10.81
2023-01-10T17:37:00.225Z,10.37
2023-01-10T17:42:06.446Z,11.55
2023-01-10T17:47:13.022Z,10.94
2023-01-10T17:52:19.346Z,11.32
2023-01-10T17:57:25.439Z,11.85
2023-01-10T18:02:32.738Z,11.10
2023-01-10T18:07:38.781Z,11.17
2023-01-10T18:12:45.153Z,10.06
2023-01-10T18:17:51.168Z,9.87
2023-01-10T18:22:57.548Z,8.74
2023-01-10T18:28:03.706Z,8.76
2023-01-10T18:33:09.931Z,8.54
2023-01-10T18:38:15.971Z,7.70
2023-01-10T18:43:22.166Z,8.17
2023-01-10T18:48:28.867Z,8.33
2023-01-10T18:53:35.162Z,7.77
2023-01-10T18:58:41.307Z,7.87
2023-01-10T19:03:47.536Z,7.97
2023-01-10T19:08:54.498Z,6.82
2023-01-10T19:14:00.763Z,10.51
2023-01-10T19:19:06.956Z,9.92
2023-01-10T19:24:13.153Z,9.43
2023-01-10T19:29:19.312Z,7.31
2023-01-10T19:34:25.489Z,7.18
2023-01-10T19:39:31.795Z,8.64
2023-01-10T19:44:38.105Z,9.01
2023-01-10T19:49:44.231Z,16.61
2023-01-10T19:54:50.594Z,7.24
2023-01-10T19:59:56.794Z,6.43
2023-01-10T20:05:03.097Z,6.55
2023-01-10T20:10:09.181Z,9.07
2023-01-10T20:15:15.395Z,7.21
2023-01-10T20:20:21.517Z,7.01
2023-01-10T20:25:27.780Z,6.92
2023-01-10T20:30:33.912Z,6.11
2023-01-10T20:35:40.122Z,7.74
2023-01-10T20:40:46.339Z,6.02
2023-01-10T20:45:52.601Z,5.76
2023-01-10T20:50:58.725Z,7.16
2023-01-10T20:56:04.932Z,5.89
2023-01-10T21:01:12.443Z,5.82
2023-01-10T21:06:16.889Z,6.81
2023-01-10T21:11:22.987Z,6.37
2023-01-10T21:16:29.307Z,5.12
2023-01-10T21:21:35.494Z,4.33
2023-01-10T21:26:41.794Z,4.46
2023-01-10T21:31:47.960Z,4.09
2023-01-10T21:36:54.101Z,5.28
2023-01-10T21:42:00.241Z,4.97
2023-01-10T21:47:06.525Z,4.79
2023-01-10T21:52:12.669Z,3.84
2023-01-10T21:57:18.845Z,3.38
2023-01-10T22:02:24.932Z,3.52
2023-01-10T22:07:31.260Z,3.25
2023-01-10T22:12:37.410Z,4.00
2023-01-10T22:17:43.867Z,4.92
2023-01-10T22:22:49.982Z,4.65
2023-01-10T22:27:56.201Z,4.14
2023-01-10T22:33:02.302Z,3.95
2023-01-10T22:38:08.540Z,4.18
2023-01-10T22:43:14.764Z,5.09
2023-01-10T22:48:20.915Z,5.30
2023-01-10T22:53:27.117Z,5.15
2023-01-10T22:58:33.253Z,4.85
2023-01-10T23:03:39.379Z,4.52
2023-01-10T23:08:45.731Z,4.74
2023-01-10T23:13:51.923Z,4.32
2023-01-10T23:18:58.149Z,4.62
2023-01-10T23:24:04.214Z,4.63
2023-01-10T23:29:10.397Z,4.78
2023-01-10T23:34:17.483Z,4.67
2023-01-10T23:39:23.905Z,4.33
2023-01-10T23:44:29.979Z,4.51
2023-01-10T23:49:36.226Z,5.08
2023-01-10T23:54:42.417Z,4.49
2023-01-10T23:59:48.714Z,4.67
